Ed's Weather Station

Ed's Weather Station
Located south of Fulton, MO
Lat. 38.75234 N
Lon. 91.96758 W
Elevation 787 ft

GR3 Radar

Current 24 Hours Yesterday Last 48 Hours Last 72 Hours Last 30 Days Yearly Rainfall Yearly Temp Trends Monthly Wind Direction Last 30 Days Temperature Solar Data
Highs and Lows Trends Sun & Moon Rise\Set Times Moon\Solar Info
Local Weather Advisories Area Forecast Discussion Hazardous Weather Outlook U.S. Severe Weather Storm Prediction Center
All Time Records Monthly Records Yearly Records
Weather Gauges MW Weather Network
Local Area Conditions Printable Weather Flyer MO River Information
About Ed's Weather Weather Station Status Weather Graphic Personal Weather Sites
Kansas City NEXRAD Radar Local/Regional Radar Satellite Images
Weather Underground Data Rain Detail Chart
NWS Forecast Details Ed's Forecast Details UV Forecast Pollen Forecast Space Weather
Member of the following organizations:





Local Links:
Callaway County Sheriff

Eds Weather Station - WU Station History
Station Historical Data
Daily Summary for February 15, 2018 Units:  English    Metric   Both
« Previous Day
Next Day »
Daily Weekly Monthly Yearly Custom
  High: Low: Average:
Temperature: TemperatureF °F 41.8 °F 60 °F
Dew Point: DewpointF °F 35.1 °F 51.7 °F
Humidity: Humidity% 44% 76%
Wind Speed: WindSpeedMPHmph 0.0mph 4.9mph
Wind Gust: WindSpeedGustMPHmph - -
Wind- - SW
Pressure: PressureIn in 29.64 in -
Precipitation: 0.00 in    
Historical Graphs
 
 
Tabular Data for February 15, 2018
Time Temperature Dew Point Pressure Wind Wind Speed Wind Gust Humidity Rainfall Rate (Hourly) solar Conditions
TemperatureF °F DewpointF °F PressureIn in Calm     Humidity% HourlyPrecipIn in SolarRadiationWatts/m^2 W/m2 Conditions
00:00 49.0 °F 47.3 °F 29.86 in South 2.3 mph 2.3 mph 94% 0.00 in 0.0 W/m2 CLR
00:05 49.2 °F 47.5 °F 29.86 in South 2.3 mph 2.3 mph 94% 0.00 in 0.0 W/m2 CLR
00:10 49.3 °F 47.6 °F 29.86 in South 3.5 mph 3.5 mph 94% 0.00 in 0.0 W/m2 CLR
00:15 49.3 °F 47.6 °F 29.85 in SSE 4.6 mph 4.6 mph 94% 0.00 in 0.0 W/m2 CLR
00:20 49.5 °F 47.8 °F 29.85 in SSW 3.5 mph 3.5 mph 94% 0.00 in 0.0 W/m2 CLR
00:25 49.8 °F 48.1 °F 29.85 in South 2.0 mph 5.0 mph 94% 0.00 in 0.0 W/m2 CLR
00:30 50.0 °F 48.3 °F 29.85 in South 3.5 mph 3.5 mph 94% 0.00 in 0.0 W/m2 CLR
00:35 50.1 °F 48.4 °F 29.85 in South 1.0 mph 3.0 mph 94% 0.00 in 0.0 W/m2 CLR
00:40 50.2 °F 48.5 °F 29.85 in South 1.0 mph 3.0 mph 94% 0.00 in 0.0 W/m2 CLR
00:45 50.1 °F 48.2 °F 29.84 in SSE 1.2 mph 1.2 mph 93% 0.00 in 0.0 W/m2 CLR
00:50 49.9 °F 48.0 °F 29.84 in SSE 2.3 mph 2.3 mph 93% 0.00 in 0.0 W/m2 CLR
00:55 49.8 °F 47.8 °F 29.83 in South 2.0 mph 5.0 mph 93% 0.00 in 0.0 W/m2 CLR
01:00 50.2 °F 48.5 °F 29.83 in South 1.0 mph 4.0 mph 94% 0.00 in 0.0 W/m2 CLR
01:05 50.4 °F 48.7 °F 29.83 in South 3.5 mph 3.5 mph 94% 0.00 in 0.0 W/m2 CLR
01:10 50.5 °F 48.8 °F 29.83 in South 2.3 mph 2.3 mph 94% 0.00 in 0.0 W/m2 CLR
01:15 50.7 °F 49.0 °F 29.83 in SSW 3.5 mph 3.5 mph 94% 0.00 in 0.0 W/m2 CLR
01:20 50.8 °F 48.8 °F 29.83 in South 3.0 mph 6.0 mph 93% 0.00 in 0.0 W/m2 CLR
01:25 50.9 °F 49.2 °F 29.83 in South 2.0 mph 6.0 mph 94% 0.00 in 0.0 W/m2 CLR
01:30 51.0 °F 49.0 °F 29.83 in South 2.3 mph 2.3 mph 93% 0.00 in 0.0 W/m2 CLR
01:35 51.0 °F 49.0 °F 29.83 in South 4.6 mph 4.6 mph 93% 0.00 in 0.0 W/m2 CLR
01:40 51.0 °F 49.0 °F 29.82 in South 2.3 mph 2.3 mph 93% 0.00 in 0.0 W/m2 CLR
01:45 51.0 °F 49.3 °F 29.82 in SSE 3.5 mph 3.5 mph 94% 0.00 in 0.0 W/m2 CLR
01:50 50.8 °F 48.8 °F 29.82 in South 4.0 mph 4.0 mph 93% 0.00 in 0.0 W/m2 CLR
01:55 50.8 °F 49.1 °F 29.82 in Calm   3.0 mph 94% 0.00 in 0.0 W/m2 CLR
02:05 50.4 °F 48.7 °F 29.81 in SSE 3.5 mph 3.5 mph 94% 0.00 in 0.0 W/m2 CLR
02:10 50.2 °F 48.5 °F 29.81 in Calm     94% 0.00 in 0.0 W/m2 CLR
02:15 49.9 °F 48.0 °F 29.81 in Calm   1.0 mph 93% 0.00 in 0.0 W/m2 CLR
02:20 49.7 °F 48.0 °F 29.81 in SSE 1.0 mph 1.0 mph 94% 0.00 in 0.0 W/m2 CLR
02:25 49.8 °F 48.4 °F 29.81 in Calm     95% 0.00 in 0.0 W/m2 CLR
02:30 49.6 °F 48.2 °F 29.80 in SSE 3.5 mph 3.5 mph 95% 0.00 in 0.0 W/m2 CLR
02:35 49.7 °F 48.3 °F 29.80 in SSE 2.3 mph 2.3 mph 95% 0.00 in 0.0 W/m2 CLR
02:40 49.7 °F 48.3 °F 29.80 in Calm   2.0 mph 95% 0.00 in 0.0 W/m2 CLR
02:45 49.5 °F 48.1 °F 29.80 in Calm     95% 0.00 in 0.0 W/m2 CLR
02:50 49.4 °F 48.0 °F 29.79 in SSE 1.2 mph 1.2 mph 95% 0.00 in 0.0 W/m2 CLR
02:55 49.5 °F 48.1 °F 29.79 in Calm     95% 0.00 in 0.0 W/m2 CLR
03:00 49.5 °F 48.1 °F 29.78 in SSE 2.3 mph 2.3 mph 95% 0.00 in 0.0 W/m2 CLR
03:05 49.8 °F 48.7 °F 29.78 in Calm     96% 0.00 in 0.0 W/m2 CLR
03:10 49.9 °F 48.8 °F 29.78 in SSE 1.2 mph   96% 0.00 in 0.0 W/m2 CLR
03:15 49.8 °F 48.7 °F 29.77 in Calm     96% 0.00 in 0.0 W/m2 CLR
03:20 49.8 °F 48.7 °F 29.77 in SSE 1.2 mph 1.2 mph 96% 0.00 in 0.0 W/m2 CLR
03:25 50.1 °F 49.0 °F 29.76 in SSE 2.3 mph 2.3 mph 96% 0.00 in 0.0 W/m2 CLR
03:30 50.4 °F 49.3 °F 29.76 in SSE 3.5 mph 3.5 mph 96% 0.00 in 0.0 W/m2 CLR
03:35 50.8 °F 49.7 °F 29.76 in SSE 1.2 mph   96% 0.00 in 0.0 W/m2 CLR
03:40 50.8 °F 49.7 °F 29.76 in South 1.2 mph 1.2 mph 96% 0.00 in 0.0 W/m2 CLR
03:45 50.6 °F 49.5 °F 29.76 in South 2.3 mph   96% 0.00 in 0.0 W/m2 CLR
03:50 50.8 °F 49.7 °F 29.75 in South 2.3 mph 2.3 mph 96% 0.00 in 0.0 W/m2 CLR
03:55 50.8 °F 50.0 °F 29.75 in SSE 1.0 mph 1.0 mph 97% 0.00 in 0.0 W/m2 CLR
04:00 50.6 °F 49.8 °F 29.75 in South 3.5 mph 3.5 mph 97% 0.00 in 0.0 W/m2 CLR
04:05 50.6 °F 49.8 °F 29.75 in South 2.3 mph 2.3 mph 97% 0.00 in 0.0 W/m2 CLR
04:10 50.6 °F 49.8 °F 29.75 in South 1.2 mph 1.2 mph 97% 0.00 in 0.0 W/m2 CLR
04:15 50.4 °F 49.3 °F 29.75 in Calm     96% 0.00 in 0.0 W/m2 CLR
04:20 50.4 °F 49.3 °F 29.74 in South 2.3 mph 2.3 mph 96% 0.00 in 0.0 W/m2 CLR
04:25 50.6 °F 49.8 °F 29.74 in South 3.5 mph 3.5 mph 97% 0.00 in 0.0 W/m2 CLR
04:30 50.7 °F 49.9 °F 29.74 in South 2.3 mph 2.3 mph 97% 0.00 in 0.0 W/m2 CLR
04:35 50.7 °F 49.9 °F 29.75 in South 2.3 mph 2.3 mph 97% 0.00 in 0.0 W/m2 CLR
04:40 50.8 °F 50.0 °F 29.74 in South 1.2 mph 1.2 mph 97% 0.00 in 0.0 W/m2 CLR
04:45 51.3 °F 50.5 °F 29.75 in South 1.2 mph 1.2 mph 97% 0.00 in 0.0 W/m2 CLR
04:50 51.7 °F 50.9 °F 29.74 in South 4.0 mph 4.0 mph 97% 0.00 in 0.0 W/m2 CLR
04:55 52.0 °F 51.2 °F 29.74 in South 2.3 mph 2.3 mph 97% 0.00 in 0.0 W/m2 CLR
05:00 52.0 °F 51.2 °F 29.74 in Calm     97% 0.00 in 0.0 W/m2 CLR
05:05 51.9 °F 51.1 °F 29.73 in South 1.0 mph   97% 0.00 in 0.0 W/m2 BKN
05:10 51.9 °F 51.1 °F 29.74 in South 3.5 mph 3.5 mph 97% 0.00 in 0.0 W/m2 BKN
05:15 52.1 °F 51.3 °F 29.74 in South 3.5 mph 3.5 mph 97% 0.00 in 0.0 W/m2 BKN
05:20 52.5 °F 51.7 °F 29.73 in South 1.0 mph 1.0 mph 97% 0.00 in 0.0 W/m2 BKN
05:25 52.9 °F 52.1 °F 29.73 in South 2.3 mph 2.3 mph 97% 0.00 in 0.0 W/m2 BKN
05:30 53.2 °F 52.4 °F 29.73 in South 4.6 mph 4.6 mph 97% 0.00 in 0.0 W/m2 BKN
05:35 53.9 °F 53.1 °F 29.72 in South 3.5 mph 3.5 mph 97% 0.00 in 0.0 W/m2 BKN
05:40 54.2 °F 53.4 °F 29.72 in SSW 3.5 mph 3.5 mph 97% 0.00 in 0.0 W/m2 BKN
05:45 54.6 °F 53.8 °F 29.72 in SSW 5.8 mph 5.8 mph 97% 0.00 in 0.0 W/m2 BKN
05:50 54.7 °F 53.9 °F 29.73 in SSW 2.0 mph 4.0 mph 97% 0.00 in 0.0 W/m2 FEW
05:55 54.2 °F 53.4 °F 29.73 in SSW 1.0 mph 2.0 mph 97% 0.00 in 0.0 W/m2 FEW
06:00 53.6 °F 52.8 °F 29.73 in SW 3.5 mph 3.5 mph 97% 0.00 in 0.0 W/m2 BKN
06:05 54.2 °F 53.4 °F 29.73 in SW 1.0 mph 2.0 mph 97% 0.00 in 0.0 W/m2 OVC
06:10 55.1 °F 54.3 °F 29.73 in SW 2.3 mph 2.3 mph 97% 0.00 in 0.0 W/m2 FEW
06:15 55.9 °F 55.1 °F 29.73 in SW 3.5 mph 3.5 mph 97% 0.00 in 0.0 W/m2 FEW
06:20 56.2 °F 55.4 °F 29.73 in South 3.5 mph 3.5 mph 97% 0.00 in 0.0 W/m2 FEW
06:25 56.6 °F 55.8 °F 29.72 in SSW 2.3 mph 2.3 mph 97% 0.00 in 0.0 W/m2 FEW
06:30 56.9 °F 56.1 °F 29.71 in SSW 3.5 mph 3.5 mph 97% 0.00 in 0.0 W/m2 FEW
06:35 57.1 °F 56.3 °F 29.71 in South 3.5 mph 3.5 mph 97% 0.00 in 0.0 W/m2 FEW
06:40 57.4 °F 56.6 °F 29.70 in South 2.3 mph 2.3 mph 97% 0.00 in 0.0 W/m2 FEW
06:45 57.6 °F 56.8 °F 29.71 in SSW 1.0 mph 3.0 mph 97% 0.00 in 0.0 W/m2 OVC
06:50 57.7 °F 56.9 °F 29.71 in SSW 2.0 mph 3.0 mph 97% 0.00 in 0.0 W/m2 OVC
06:55 57.9 °F 57.1 °F 29.71 in SSW 3.5 mph 3.5 mph 97% 0.00 in 0.0 W/m2 FEW
07:00 58.1 °F 57.3 °F 29.70 in SSW 3.5 mph 3.5 mph 97% 0.00 in 0.0 W/m2 FEW
07:05 58.4 °F 57.6 °F 29.70 in SSW 3.5 mph 3.5 mph 97% 0.00 in 0.0 W/m2 CLR
07:10 58.8 °F 57.7 °F 29.70 in SSW 3.5 mph 3.5 mph 96% 0.00 in 0.0 W/m2 CLR
07:15 59.1 °F 57.7 °F 29.70 in SW 3.5 mph 3.5 mph 95% 0.00 in 7.0 W/m2 CLR
07:20 59.5 °F 57.8 °F 29.69 in SSW 3.0 mph 5.0 mph 94% 0.00 in 7.0 W/m2 CLR
07:25 60.0 °F 57.9 °F 29.69 in SSW 3.0 mph 7.0 mph 93% 0.00 in 11.0 W/m2 CLR
07:30 60.4 °F 58.1 °F 29.70 in SSW 4.6 mph 4.6 mph 92% 0.00 in 16.0 W/m2 CLR
07:35 60.9 °F 58.2 °F 29.69 in SSW 3.0 mph 12.0 mph 91% 0.00 in 23.0 W/m2 CLR
07:40 61.1 °F 58.1 °F 29.70 in South 4.6 mph 4.6 mph 90% 0.00 in 28.0 W/m2 CLR
07:45 61.2 °F 58.2 °F 29.70 in SSW 3.0 mph 5.0 mph 90% 0.00 in 32.0 W/m2 CLR
07:50 61.4 °F 58.4 °F 29.70 in SSW 5.0 mph 13.0 mph 90% 0.00 in 33.0 W/m2 CLR
07:55 61.7 °F 58.4 °F 29.70 in SSW 6.9 mph 6.9 mph 89% 0.00 in 40.0 W/m2 CLR
08:00 62.1 °F 58.9 °F 29.70 in South 3.0 mph 12.0 mph 89% 0.00 in 40.0 W/m2 CLR
08:05 62.4 °F 58.5 °F 29.70 in SSW 6.9 mph 6.9 mph 87% 0.00 in 42.0 W/m2 CLR
08:10 62.6 °F 58.7 °F 29.70 in SSW 4.6 mph 4.6 mph 87% 0.00 in 49.0 W/m2 CLR
08:15 62.8 °F 58.9 °F 29.71 in SSW 5.8 mph 5.8 mph 87% 0.00 in 56.0 W/m2 CLR
08:20 62.9 °F 58.6 °F 29.70 in SSW 3.0 mph 5.0 mph 86% 0.00 in 54.0 W/m2 FEW
08:25 63.1 °F 58.8 °F 29.70 in SW 10.4 mph 10.4 mph 86% 0.00 in 60.0 W/m2 CLR
08:30 63.3 °F 58.7 °F 29.70 in SSW 5.0 mph 5.0 mph 85% 0.00 in 67.0 W/m2 CLR
08:35 63.5 °F 58.9 °F 29.70 in SSW 6.9 mph 6.9 mph 85% 0.00 in 76.0 W/m2 CLR
08:40 63.8 °F 58.9 °F 29.71 in SW 5.8 mph 5.8 mph 84% 0.00 in 77.0 W/m2 CLR
08:45 64.0 °F 59.1 °F 29.71 in SW 6.9 mph 6.9 mph 84% 0.00 in 77.0 W/m2 CLR
08:50 64.1 °F 59.2 °F 29.70 in SSE 10.4 mph 10.4 mph 84% 0.00 in 83.0 W/m2 CLR
08:55 64.3 °F 59.4 °F 29.70 in SW 6.9 mph 6.9 mph 84% 0.00 in 84.0 W/m2 CLR
09:00 64.5 °F 59.2 °F 29.70 in South 3.5 mph 3.5 mph 83% 0.00 in 79.0 W/m2 CLR
09:05 64.7 °F 59.1 °F 29.70 in SSW 6.9 mph 6.9 mph 82% 0.00 in 77.0 W/m2 CLR
09:10 64.7 °F 58.7 °F 29.70 in SSW 5.8 mph 5.8 mph 81% 0.00 in 67.0 W/m2 CLR
09:15 64.7 °F 58.7 °F 29.70 in SSW 9.0 mph 9.0 mph 81% 0.00 in 63.0 W/m2 CLR
09:20 64.8 °F 58.8 °F 29.70 in SSW 4.6 mph 4.6 mph 81% 0.00 in 70.0 W/m2 CLR
09:25 64.8 °F 58.8 °F 29.70 in South 6.9 mph 6.9 mph 81% 0.00 in 63.0 W/m2 CLR
09:30 64.9 °F 58.9 °F 29.70 in SSW 6.0 mph 6.0 mph 81% 0.00 in 90.0 W/m2 CLR
09:35 65.2 °F 58.9 °F 29.70 in SSW 8.1 mph 8.1 mph 80% 0.00 in 90.0 W/m2 CLR
09:40 65.3 °F 58.6 °F 29.70 in South 10.4 mph 10.4 mph 79% 0.00 in 77.0 W/m2 CLR
09:45 65.4 °F 58.4 °F 29.70 in SSW 5.0 mph 5.0 mph 78% 0.00 in 83.0 W/m2 CLR
09:50 65.7 °F 58.7 °F 29.70 in SSW 4.0 mph 4.8 mph 78% 0.00 in 77.0 W/m2 CLR
09:55 65.9 °F 58.5 °F 29.70 in SSW 5.8 mph 5.8 mph 77% 0.00 in 67.0 W/m2 CLR
10:00 66.0 °F 58.6 °F 29.70 in SSW 4.6 mph 4.6 mph 77% 0.00 in 91.0 W/m2 CLR
10:05 66.3 °F 58.5 °F 29.70 in SSW 10.4 mph 10.4 mph 76% 0.00 in 125.0 W/m2 CLR
10:10 66.6 °F 58.4 °F 29.69 in SW 5.8 mph 5.8 mph 75% 0.00 in 151.0 W/m2 CLR
10:15 67.0 °F 58.8 °F 29.69 in SW 6.0 mph 6.0 mph 75% 0.00 in 98.0 W/m2 CLR
10:20 67.2 °F 58.2 °F 29.69 in SSW 4.6 mph 4.6 mph 73% 0.00 in 93.0 W/m2 CLR
10:25 67.2 °F 58.2 °F 29.69 in SSW 4.6 mph 4.6 mph 73% 0.00 in 90.0 W/m2 CLR
10:30 67.3 °F 58.3 °F 29.69 in SW 4.6 mph 4.6 mph 73% 0.00 in 81.0 W/m2 CLR
10:35 67.2 °F 57.9 °F 29.69 in SW 10.4 mph 10.4 mph 72% 0.00 in 109.0 W/m2 CLR
10:40 67.3 °F 58.0 °F 29.69 in SSW 5.8 mph 5.8 mph 72% 0.00 in 81.0 W/m2 CLR
10:45 67.4 °F 58.1 °F 29.69 in SSW 4.6 mph 4.6 mph 72% 0.00 in 93.0 W/m2 CLR
10:50 67.5 °F 57.8 °F 29.69 in SSW 6.0 mph 6.0 mph 71% 0.00 in 105.0 W/m2 CLR
10:55 67.7 °F 58.0 °F 29.69 in SW 5.8 mph 5.8 mph 71% 0.00 in 91.0 W/m2 CLR
11:00 67.9 °F 57.8 °F 29.69 in SW 5.8 mph 5.8 mph 70% 0.00 in 127.0 W/m2 CLR
11:05 68.3 °F 57.7 °F 29.69 in SSW 6.9 mph 6.9 mph 69% 0.00 in 127.0 W/m2 CLR
11:10 68.7 °F 58.1 °F 29.68 in South 5.0 mph 5.0 mph 69% 0.00 in 135.0 W/m2 CLR
11:15 69.0 °F 58.0 °F 29.68 in SSW 7.0 mph 7.0 mph 68% 0.00 in 186.0 W/m2 CLR
11:20 69.4 °F 57.5 °F 29.68 in SSW 6.9 mph 6.9 mph 66% 0.00 in 134.0 W/m2 CLR
11:25 69.7 °F 57.8 °F 29.68 in SSW 5.8 mph 5.8 mph 66% 0.00 in 178.0 W/m2 CLR
11:30 70.0 °F 57.7 °F 29.68 in SW 11.5 mph 11.5 mph 65% 0.00 in 158.0 W/m2 CLR
11:35 70.4 °F 57.2 °F 29.68 in SW 11.5 mph 11.5 mph 63% 0.00 in 315.0 W/m2 CLR
11:40 71.1 °F 57.4 °F 29.68 in SSW 6.0 mph 6.0 mph 62% 0.00 in 218.0 W/m2 CLR
11:45 71.5 °F 57.3 °F 29.68 in SSW 6.9 mph 6.9 mph 61% 0.00 in 134.0 W/m2 CLR
11:50 71.5 °F 57.3 °F 29.68 in South 8.0 mph 8.0 mph 61% 0.00 in 192.0 W/m2 CLR
11:55 71.6 °F 57.0 °F 29.68 in SSW 9.0 mph 9.0 mph 60% 0.00 in 174.0 W/m2 CLR
12:00 71.6 °F 57.0 °F 29.68 in SSW 8.1 mph 8.1 mph 60% 0.00 in 167.0 W/m2 CLR
12:05 71.7 °F 56.6 °F 29.68 in SW 7.0 mph 7.0 mph 59% 0.00 in 153.0 W/m2 CLR
12:10 71.8 °F 56.7 °F 29.68 in SW 9.2 mph 9.2 mph 59% 0.00 in 202.0 W/m2 CLR
12:15 72.0 °F 56.4 °F 29.68 in SSW 9.2 mph 9.2 mph 58% 0.00 in 169.0 W/m2 CLR
12:20 72.2 °F 56.6 °F 29.68 in SW 6.9 mph 6.9 mph 58% 0.00 in 186.0 W/m2 CLR
12:25 72.5 °F 56.4 °F 29.68 in SSW 6.9 mph 6.9 mph 57% 0.00 in 272.0 W/m2 CLR
12:30 73.6 °F 56.9 °F 29.68 in South 9.2 mph 9.2 mph 56% 0.00 in 649.0 W/m2 CLR
12:35 75.4 °F 56.5 °F 29.68 in SSW 8.0 mph 8.6 mph 52% 0.00 in 469.0 W/m2 CLR
12:40 76.2 °F 56.7 °F 29.67 in SW 6.9 mph 6.9 mph 51% 0.00 in 353.0 W/m2 CLR
12:45 76.0 °F 56.0 °F 29.67 in SW 9.2 mph 9.2 mph 50% 0.00 in 195.0 W/m2 CLR
12:50 74.9 °F 55.6 °F 29.67 in SW 10.0 mph 10.0 mph 51% 0.00 in 123.0 W/m2 CLR
12:55 73.8 °F 55.1 °F 29.67 in SW 8.1 mph 8.1 mph 52% 0.00 in 74.0 W/m2 CLR
13:00 72.9 °F 54.8 °F 29.67 in SW 12.7 mph 12.7 mph 53% 0.00 in 91.0 W/m2 CLR
13:05 72.6 °F 55.0 °F 29.67 in SW 8.1 mph 8.1 mph 54% 0.00 in 93.0 W/m2 CLR
13:10 72.5 °F 55.4 °F 29.67 in SW 5.8 mph 5.8 mph 55% 0.00 in 111.0 W/m2 CLR
13:15 72.6 °F 55.0 °F 29.67 in SW 5.8 mph 5.9 mph 54% 0.00 in 91.0 W/m2 CLR
13:20 72.6 °F 55.0 °F 29.66 in SSW 3.5 mph 3.5 mph 54% 0.00 in 88.0 W/m2 CLR
13:25 72.6 °F 55.5 °F 29.66 in WSW 5.8 mph 5.8 mph 55% 0.00 in 107.0 W/m2 CLR
13:30 72.8 °F 55.7 °F 29.66 in SW 5.0 mph 5.0 mph 55% 0.00 in 114.0 W/m2 CLR
13:35 73.0 °F 54.9 °F 29.65 in SW 4.6 mph 4.6 mph 53% 0.00 in 114.0 W/m2 CLR
13:40 73.3 °F 54.6 °F 29.65 in SW 6.9 mph 6.9 mph 52% 0.00 in 169.0 W/m2 CLR
13:45 73.6 °F 54.4 °F 29.64 in SW 3.5 mph 3.5 mph 51% 0.00 in 134.0 W/m2 CLR
13:50 73.9 °F 54.1 °F 29.65 in SW 3.5 mph 4.0 mph 50% 0.00 in 118.0 W/m2 CLR
13:55 74.1 °F 53.7 °F 29.64 in WSW 3.5 mph 3.5 mph 49% 0.00 in 241.0 W/m2 CLR
14:00 74.9 °F 54.4 °F 29.64 in SSW 4.0 mph 4.0 mph 49% 0.00 in 211.0 W/m2 CLR
14:05 75.4 °F 53.8 °F 29.64 in SW 4.6 mph 4.6 mph 47% 0.00 in 172.0 W/m2 CLR
14:10 75.5 °F 53.3 °F 29.64 in SW 3.5 mph 3.5 mph 46% 0.00 in 220.0 W/m2 CLR
14:15 75.8 °F 53.5 °F 29.65 in West 6.0 mph 6.0 mph 46% 0.00 in 153.0 W/m2 CLR
14:20 75.9 °F 52.4 °F 29.65 in WNW 9.0 mph 9.0 mph 44% 0.00 in 155.0 W/m2 CLR
14:25 75.8 °F 52.3 °F 29.65 in WSW 10.4 mph 10.4 mph 44% 0.00 in 165.0 W/m2 CLR
14:30 75.7 °F 52.8 °F 29.64 in WNW 9.2 mph 9.2 mph 45% 0.00 in 214.0 W/m2 CLR
14:35 75.8 °F 52.9 °F 29.65 in West 8.1 mph 8.1 mph 45% 0.00 in 132.0 W/m2 CLR
14:40 75.5 °F 53.3 °F 29.64 in WSW 5.0 mph 12.0 mph 46% 0.00 in 146.0 W/m2 CLR
14:45 75.1 °F 52.9 °F 29.64 in WSW 2.0 mph 9.0 mph 46% 0.00 in 116.0 W/m2 CLR
14:50 74.8 °F 53.2 °F 29.65 in WSW 5.0 mph 9.0 mph 47% 0.00 in 114.0 W/m2 CLR
14:55 74.4 °F 53.4 °F 29.65 in WSW 8.1 mph 8.1 mph 48% 0.00 in 95.0 W/m2 CLR
15:00 74.2 °F 53.2 °F 29.65 in WSW 6.9 mph 6.9 mph 48% 0.00 in 76.0 W/m2 CLR
15:05 73.9 °F 53.0 °F 29.65 in SW 5.0 mph 5.0 mph 48% 0.00 in 54.0 W/m2 CLR
15:10 73.5 °F 53.2 °F 29.65 in WSW 4.6 mph 4.6 mph 49% 0.00 in 42.0 W/m2 CLR
15:15 73.2 °F 53.4 °F 29.64 in SW 3.5 mph 3.5 mph 50% 0.00 in 46.0 W/m2 CLR
15:20 72.8 °F 52.5 °F 29.64 in SW 4.0 mph 4.0 mph 49% 0.00 in 39.0 W/m2 CLR
15:25 72.5 °F 52.8 °F 29.65 in WSW 3.5 mph 3.5 mph 50% 0.00 in 40.0 W/m2 CLR
15:30 72.3 °F 52.6 °F 29.65 in WSW 5.8 mph 5.8 mph 50% 0.00 in 39.0 W/m2 CLR
15:35 72.1 °F 52.4 °F 29.66 in NW 5.0 mph 5.0 mph 50% 0.00 in 39.0 W/m2 CLR
15:40 71.9 °F 52.2 °F 29.66 in WSW 5.8 mph 5.8 mph 50% 0.00 in 28.0 W/m2 CLR
15:45 71.6 °F 52.5 °F 29.66 in WSW 4.0 mph 4.0 mph 51% 0.00 in 28.0 W/m2 CLR
15:50 71.4 °F 52.3 °F 29.66 in WSW 3.5 mph 3.5 mph 51% 0.00 in 32.0 W/m2 CLR
15:55 71.1 °F 52.6 °F 29.66 in WSW 4.0 mph 4.0 mph 52% 0.00 in 26.0 W/m2 CLR
16:00 71.0 °F 52.5 °F 29.66 in West 6.0 mph 6.0 mph 52% 0.00 in 26.0 W/m2 FEW
16:05 70.8 °F 52.8 °F 29.67 in WSW 3.5 mph 3.5 mph 53% 0.00 in 21.0 W/m2 FEW
16:10 70.7 °F 53.2 °F 29.67 in WSW 3.5 mph 3.5 mph 54% 0.00 in 21.0 W/m2 FEW
16:15 70.6 °F 53.1 °F 29.67 in WSW 3.5 mph 3.5 mph 54% 0.00 in 21.0 W/m2 FEW
16:20 70.5 °F 53.1 °F 29.67 in SW 3.5 mph 3.5 mph 54% 0.00 in 16.0 W/m2 FEW
16:25 70.4 °F 53.5 °F 29.68 in SW 3.5 mph 3.5 mph 55% 0.00 in 11.0 W/m2 FEW
16:30 70.3 °F 53.4 °F 29.67 in WSW 3.5 mph 3.5 mph 55% 0.00 in 11.0 W/m2 FEW
16:35 70.1 °F 53.2 °F 29.67 in WSW 3.5 mph 3.5 mph 55% 0.00 in 9.0 W/m2 FEW
16:40 69.9 °F 54.0 °F 29.67 in WSW 4.0 mph 4.0 mph 57% 0.00 in 7.0 W/m2 FEW
16:45 69.5 °F 54.1 °F 29.68 in WSW 3.5 mph 3.5 mph 58% 0.00 in 5.0 W/m2 FEW
16:50 69.2 °F 54.3 °F 29.68 in SW 3.5 mph 3.5 mph 59% 0.00 in 5.0 W/m2 FEW
16:55 69.0 °F 54.1 °F 29.69 in SW 4.0 mph 4.0 mph 59% 0.00 in 5.0 W/m2 FEW
17:00 69.1 °F 54.2 °F 29.69 in SW 6.0 mph 6.0 mph 59% 0.00 in 5.0 W/m2 FEW
17:05 69.1 °F 54.2 °F 29.69 in SW 5.8 mph 5.8 mph 59% 0.00 in 5.0 W/m2 FEW
17:10 69.2 °F 54.3 °F 29.69 in WSW 3.5 mph 3.5 mph 59% 0.00 in 5.0 W/m2 FEW
17:15 69.4 °F 54.4 °F 29.69 in SW 3.5 mph 3.5 mph 59% 0.00 in 0.0 W/m2 FEW
17:20 69.3 °F 54.4 °F 29.69 in SW 3.5 mph 3.5 mph 59% 0.00 in 0.0 W/m2 FEW
17:25 69.3 °F 54.4 °F 29.69 in SW 4.6 mph 4.6 mph 59% 0.00 in 0.0 W/m2 FEW
17:30 69.3 °F 54.8 °F 29.69 in SW 3.5 mph 3.5 mph 60% 0.00 in 0.0 W/m2 FEW
17:35 69.2 °F 54.7 °F 29.69 in SW 3.5 mph 3.5 mph 60% 0.00 in 0.0 W/m2 FEW
17:40 69.1 °F 54.6 °F 29.68 in SW 4.0 mph 4.0 mph 60% 0.00 in 0.0 W/m2 FEW
17:45 69.1 °F 54.6 °F 29.68 in SSW 4.0 mph 4.0 mph 60% 0.00 in 0.0 W/m2 FEW
17:50 69.3 °F 54.8 °F 29.69 in SSW 4.6 mph 4.6 mph 60% 0.00 in 0.0 W/m2 FEW
17:55 69.3 °F 54.8 °F 29.69 in SW 3.5 mph 3.5 mph 60% 0.00 in 0.0 W/m2 FEW
18:00 69.4 °F 54.9 °F 29.69 in SSW 3.5 mph 3.5 mph 60% 0.00 in 0.0 W/m2 FEW
18:05 69.3 °F 55.3 °F 29.69 in SW 4.6 mph 4.6 mph 61% 0.00 in 0.0 W/m2 BKN
18:10 69.2 °F 55.2 °F 29.70 in WSW 4.6 mph 4.6 mph 61% 0.00 in 0.0 W/m2 BKN
18:15 68.8 °F 53.9 °F 29.72 in NNW 8.1 mph 8.1 mph 59% 0.00 in 0.0 W/m2 BKN
18:20 67.9 °F 51.1 °F 29.72 in WNW 3.5 mph 3.5 mph 55% 0.00 in 0.0 W/m2 BKN
18:25 67.3 °F 51.1 °F 29.72 in West 1.2 mph   56% 0.00 in 0.0 W/m2 BKN
18:30 66.7 °F 50.5 °F 29.73 in ESE 1.2 mph 1.2 mph 56% 0.00 in 0.0 W/m2 BKN
18:35 65.9 °F 48.8 °F 29.73 in West 3.5 mph 3.5 mph 54% 0.00 in 0.0 W/m2 BKN
18:40 65.5 °F 48.4 °F 29.74 in WNW 3.5 mph 3.5 mph 54% 0.00 in 0.0 W/m2 BKN
18:45 65.0 °F 47.4 °F 29.73 in Calm   0.1 mph 53% 0.00 in 0.0 W/m2 BKN
18:50 64.6 °F 46.6 °F 29.73 in WNW 3.0 mph 3.0 mph 52% 0.00 in 0.0 W/m2 BKN
18:55 64.3 °F 46.3 °F 29.73 in NW 2.3 mph 2.3 mph 52% 0.00 in 0.0 W/m2 BKN
19:00 64.0 °F 46.0 °F 29.73 in Calm     52% 0.00 in 0.0 W/m2 BKN
19:05 63.5 °F 46.6 °F 29.74 in NW 3.5 mph 3.5 mph 54% 0.00 in 0.0 W/m2 -RA
19:10 62.6 °F 49.4 °F 29.74 in NNW 10.4 mph 10.4 mph 62% 0.00 in 0.0 W/m2 -RA
19:15 61.2 °F 50.6 °F 29.74 in WNW 9.2 mph 9.2 mph 68% 0.00 in 0.0 W/m2 -RA
19:20 60.1 °F 51.4 °F 29.74 in NNW 5.8 mph 5.8 mph 73% 0.00 in 0.0 W/m2 -RA
19:25 59.1 °F 51.2 °F 29.75 in NNW 4.6 mph 4.6 mph 75% 0.00 in 0.0 W/m2 -RA
19:30 58.4 °F 51.6 °F 29.75 in North 9.2 mph 9.2 mph 78% 0.00 in 0.0 W/m2 -RA
19:35 57.8 °F 51.3 °F 29.75 in NNW 10.4 mph 10.4 mph 79% 0.00 in 0.0 W/m2 -RA
19:40 57.3 °F 51.2 °F 29.75 in NE 4.6 mph 4.6 mph 80% 0.00 in 0.0 W/m2 -RA
19:45 56.9 °F 51.1 °F 29.75 in NW 3.5 mph 3.5 mph 81% 0.00 in 0.0 W/m2 -RA
19:50 56.5 °F 51.1 °F 29.75 in NE 5.0 mph 5.0 mph 82% 0.00 in 0.0 W/m2 -RA
19:55 56.0 °F 50.6 °F 29.75 in NNE 11.5 mph 11.5 mph 82% 0.00 in 0.0 W/m2 -RA
20:00 55.7 °F 50.6 °F 29.75 in NW 4.6 mph 4.6 mph 83% 0.00 in 0.0 W/m2 -RA
20:05 55.4 °F 50.3 °F 29.76 in NNE 7.0 mph 7.0 mph 83% 0.00 in 0.0 W/m2 OVC
20:10 55.1 °F 50.0 °F 29.76 in NNE 7.0 mph 7.0 mph 83% 0.00 in 0.0 W/m2 OVC
20:15 54.9 °F 49.8 °F 29.76 in NW 8.1 mph 8.1 mph 83% 0.00 in 0.0 W/m2 OVC
20:20 54.6 °F 49.5 °F 29.76 in NNE 12.7 mph 12.7 mph 83% 0.00 in 0.0 W/m2 OVC
20:25 54.4 °F 49.3 °F 29.76 in NNE 5.8 mph 5.8 mph 83% 0.00 in 0.0 W/m2 OVC
20:30 54.1 °F 49.1 °F 29.76 in North 8.1 mph 8.1 mph 83% 0.00 in 0.0 W/m2 OVC
20:35 54.0 °F 49.3 °F 29.77 in North 11.0 mph 11.0 mph 84% 0.00 in 0.0 W/m2 OVC
20:40 53.7 °F 49.0 °F 29.77 in NNW 5.8 mph 5.8 mph 84% 0.00 in 0.0 W/m2 OVC
20:45 53.4 °F 49.0 °F 29.77 in North 11.5 mph 11.5 mph 85% 0.00 in 0.0 W/m2 OVC
20:46 53.4 °F 49.0 °F 29.77 in North 6.9 mph 6.9 mph 85% 0.00 in 0.0 W/m2 OVC
20:51 53.2 °F 48.8 °F 29.77 in NNW 9.2 mph 9.2 mph 85% 0.00 in 0.0 W/m2 OVC
20:56 53.1 °F 48.7 °F 29.78 in NW 8.1 mph 8.1 mph 85% 0.00 in 0.0 W/m2 OVC
21:01 52.8 °F 48.4 °F 29.78 in North 4.0 mph 4.0 mph 85% 0.00 in 0.0 W/m2 -RA
21:06 52.7 °F 48.3 °F 29.79 in NW 10.4 mph 10.4 mph 85% 0.00 in 0.0 W/m2 -RA
21:11 52.6 °F 48.2 °F 29.79 in NW 4.6 mph 4.6 mph 85% 0.00 in 0.0 W/m2 -RA
21:16 52.5 °F 48.1 °F 29.80 in NNW 2.3 mph 2.3 mph 85% 0.00 in 0.0 W/m2 -RA
21:21 52.3 °F 47.9 °F 29.80 in North 10.4 mph 10.4 mph 85% 0.00 in 0.0 W/m2 -RA
21:26 52.1 °F 47.7 °F 29.80 in North 5.8 mph 5.8 mph 85% 0.00 in 0.0 W/m2 -RA
21:31 51.8 °F 47.4 °F 29.80 in North 8.1 mph 8.1 mph 85% 0.00 in 0.0 W/m2 -RA
21:36 51.5 °F 47.1 °F 29.81 in NNW 6.9 mph 6.9 mph 85% 0.00 in 0.0 W/m2 -RA
21:41 51.3 °F 46.9 °F 29.81 in NNW 4.6 mph 4.6 mph 85% 0.00 in 0.0 W/m2 -RA
21:46 51.2 °F 46.8 °F 29.82 in WNW 3.5 mph 3.5 mph 85% 0.00 in 0.0 W/m2 -RA
21:51 51.0 °F 46.6 °F 29.83 in WNW 3.5 mph 3.5 mph 85% 0.00 in 0.0 W/m2 -RA
21:56 50.6 °F 45.6 °F 29.83 in NW 11.5 mph 11.5 mph 83% 0.00 in 0.0 W/m2 -RA
22:01 50.0 °F 45.0 °F 29.84 in NW 10.4 mph 10.4 mph 83% 0.00 in 0.0 W/m2 OVC
22:06 49.6 °F 44.6 °F 29.84 in NW 5.8 mph 5.8 mph 83% 0.00 in 0.0 W/m2 OVC
22:11 49.1 °F 44.2 °F 29.85 in NW 8.1 mph 8.1 mph 83% 0.00 in 0.0 W/m2 OVC
22:16 48.6 °F 43.0 °F 29.85 in NNW 9.2 mph 9.2 mph 81% 0.00 in 0.0 W/m2 OVC
22:21 48.0 °F 42.1 °F 29.86 in NW 12.7 mph 12.7 mph 80% 0.00 in 0.0 W/m2 OVC
22:31 47.0 °F 41.5 °F 29.87 in WNW 3.5 mph 3.5 mph 81% 0.00 in 0.0 W/m2 OVC
22:36 46.6 °F 41.1 °F 29.87 in NNW 9.2 mph 9.2 mph 81% 0.00 in 0.0 W/m2 OVC
22:41 46.1 °F 40.3 °F 29.87 in WNW 8.1 mph 8.1 mph 80% 0.00 in 0.0 W/m2 OVC
22:46 45.7 °F 39.2 °F 29.88 in North 11.5 mph 11.5 mph 78% 0.00 in 0.0 W/m2 OVC
22:51 45.2 °F 38.4 °F 29.89 in North 9.2 mph 9.2 mph 77% 0.00 in 0.0 W/m2 OVC
22:56 44.9 °F 38.1 °F 29.89 in NNW 4.6 mph 4.6 mph 77% 0.00 in 0.0 W/m2 OVC
23:01 44.6 °F 38.2 °F 29.89 in NW 4.6 mph 4.6 mph 78% 0.00 in 0.0 W/m2 OVC
23:06 44.4 °F 37.6 °F 29.90 in WNW 5.8 mph 5.8 mph 77% 0.00 in 0.0 W/m2 OVC
23:11 44.0 °F 37.3 °F 29.91 in West 11.5 mph 11.5 mph 77% 0.00 in 0.0 W/m2 OVC
23:16 43.5 °F 36.8 °F 29.91 in NNW 6.9 mph 6.9 mph 77% 0.00 in 0.0 W/m2 OVC
23:21 43.2 °F 36.1 °F 29.91 in NNW 6.0 mph 6.0 mph 76% 0.00 in 0.0 W/m2 OVC
23:26 42.8 °F 35.8 °F 29.91 in NW 11.5 mph 11.5 mph 76% 0.00 in 0.0 W/m2 OVC
23:31 42.7 °F 35.7 °F 29.92 in NW 6.0 mph 6.0 mph 76% 0.00 in 0.0 W/m2 OVC
23:36 42.5 °F 35.5 °F 29.92 in NNE 9.2 mph 9.2 mph 76% 0.00 in 0.0 W/m2 OVC
23:41 42.4 °F 35.4 °F 29.92 in NW 4.6 mph 4.6 mph 76% 0.00 in 0.0 W/m2 OVC
23:46 42.2 °F 35.5 °F 29.93 in ENE 8.1 mph 8.1 mph 77% 0.00 in 0.0 W/m2 OVC
23:51 42.0 °F 35.3 °F 29.92 in North 11.5 mph 11.5 mph 77% 0.00 in 0.0 W/m2 OVC
23:56 41.8 °F 35.1 °F 29.92 in NNW 9.2 mph 9.2 mph 77% 0.00 in 0.0 W/m2 OVC
Fulton, MO, USA
Compliments of Weather Underground - 2.25 mb